Onate, Spain
Current Conditions -  °F | °C
As of 10:30 PM on Wednesday 17 Dec 2014 (Local Time) from LEVT Reporting Station
Broken Clouds Broken Clouds  
Wind Chill: 45°   Ceiling: 3300
Heat Index: 48°   Visibility: 6mi
Dew Point: 43°   Wind: 7mph
Humidity: 82%   Direction: 300°WNW
Pressure: 30.39"   Gusts: NA
Location:  43.03°N, 2.41°W
Report Text: LEVT 172130Z 30006KT 250V340 9999 SCT020 BKN033 09/06 Q1029
Loading
Personal Weather Stations






























Interactive Weather Map New forecast layout! Learn more

10-Day Weather Forecast

Advertisements
Track Severe Weather on mobile